createdAt,value
2017-11-16T00:00:49.502Z,17.75
2017-11-16T00:03:17.055Z,16.15
2017-11-16T00:05:44.624Z,16.15
2017-11-16T00:08:12.153Z,18.15
2017-11-16T00:10:40.491Z,13.20
2017-11-16T00:13:08.036Z,20.42
2017-11-16T00:15:35.600Z,18.67
2017-11-16T00:18:03.162Z,18.20
2017-11-16T00:20:30.738Z,15.77
2017-11-16T00:22:58.277Z,16.48
2017-11-16T00:25:25.834Z,13.18
2017-11-16T00:27:53.438Z,14.80
2017-11-16T00:30:21.007Z,10.32
2017-11-16T00:32:48.560Z,16.55
2017-11-16T00:35:16.143Z,11.70
2017-11-16T00:37:44.464Z,12.27
2017-11-16T00:40:12.015Z,19.73
2017-11-16T00:42:39.578Z,13.10
2017-11-16T00:45:07.121Z,22.60
2017-11-16T00:47:35.442Z,14.98
2017-11-16T00:50:03.015Z,15.52
2017-11-16T00:52:30.561Z,14.65
2017-11-16T00:54:58.116Z,15.88
2017-11-16T00:57:25.696Z,14.75
2017-11-16T00:59:53.262Z,14.45
2017-11-16T01:02:20.820Z,12.90
2017-11-16T01:04:48.409Z,13.27
2017-11-16T01:07:15.952Z,19.37
2017-11-16T01:09:43.518Z,15.65
2017-11-16T01:12:11.072Z,14.07
2017-11-16T01:14:38.623Z,15.15
2017-11-16T01:17:06.177Z,17.23
2017-11-16T01:19:33.706Z,15.23
2017-11-16T01:22:01.291Z,17.05
2017-11-16T01:24:28.822Z,14.38
2017-11-16T01:26:57.121Z,19.67
2017-11-16T01:29:24.708Z,13.55
2017-11-16T01:31:52.243Z,10.30
2017-11-16T01:34:19.798Z,13.30
2017-11-16T01:36:47.379Z,14.68
2017-11-16T01:39:14.921Z,14.75
2017-11-16T01:41:42.490Z,22.70
2017-11-16T01:44:10.028Z,9.20
2017-11-16T01:46:38.363Z,13.45
2017-11-16T01:49:05.921Z,13.62
2017-11-16T01:51:33.505Z,15.95
2017-11-16T01:54:01.074Z,16.15
2017-11-16T01:56:28.665Z,19.42
2017-11-16T01:58:56.956Z,18.67
2017-11-16T02:01:24.510Z,11.32
2017-11-16T02:03:52.062Z,15.50
2017-11-16T02:06:20.367Z,12.10
2017-11-16T02:08:47.947Z,30.55
2017-11-16T02:11:15.518Z,19.98
2017-11-16T02:13:43.084Z,10.55
2017-11-16T02:16:10.627Z,10.55
2017-11-16T02:18:38.212Z,9.55
2017-11-16T02:21:05.781Z,10.25
2017-11-16T02:23:33.322Z,13.50
2017-11-16T02:26:00.905Z,14.52
2017-11-16T02:28:28.454Z,16.05
2017-11-16T02:30:56.032Z,10.13
2017-11-16T02:33:23.568Z,9.20
2017-11-16T02:35:51.123Z,9.55
2017-11-16T02:38:18.691Z,10.48
2017-11-16T02:40:46.230Z,9.27
2017-11-16T02:43:13.776Z,8.05
2017-11-16T02:45:41.348Z,10.23
2017-11-16T02:48:08.883Z,7.80
2017-11-16T02:50:37.201Z,7.53
2017-11-16T02:53:04.773Z,11.82
2017-11-16T02:55:32.332Z,7.45
2017-11-16T02:57:59.927Z,7.07
2017-11-16T03:00:27.463Z,7.10
2017-11-16T03:02:55.025Z,9.23
2017-11-16T03:05:22.581Z,9.63
2017-11-16T03:07:50.146Z,9.27
2017-11-16T03:10:17.712Z,8.00
2017-11-16T03:12:45.267Z,18.08
2017-11-16T03:15:12.830Z,9.13
2017-11-16T03:17:40.377Z,13.48
2017-11-16T03:20:07.935Z,10.05
2017-11-16T03:22:35.512Z,9.43
2017-11-16T03:25:03.156Z,10.10
2017-11-16T03:27:30.716Z,11.55
2017-11-16T03:29:58.307Z,18.98
2017-11-16T03:32:25.856Z,8.25
2017-11-16T03:34:53.417Z,11.63
2017-11-16T03:37:20.952Z,6.22
2017-11-16T03:39:48.517Z,13.32
2017-11-16T03:42:16.073Z,10.65
2017-11-16T03:44:44.370Z,7.93
2017-11-16T03:47:11.935Z,13.30
2017-11-16T03:49:39.493Z,6.72
2017-11-16T03:52:07.049Z,11.45
2017-11-16T03:54:34.619Z,10.07
2017-11-16T03:57:02.158Z,15.32
2017-11-16T03:59:30.462Z,14.13
2017-11-16T04:01:58.036Z,10.77
2017-11-16T04:04:25.571Z,10.20
2017-11-16T04:06:53.130Z,9.80
2017-11-16T04:09:21.429Z,7.72
2017-11-16T04:11:48.981Z,15.75
2017-11-16T04:14:16.534Z,7.80
2017-11-16T04:16:44.131Z,9.70
2017-11-16T04:19:11.692Z,11.57
2017-11-16T04:21:39.230Z,8.82
2017-11-16T04:24:06.783Z,23.80
2017-11-16T04:26:34.341Z,11.85
2017-11-16T04:29:01.913Z,14.10
2017-11-16T04:31:29.466Z,12.05
2017-11-16T04:33:57.061Z,8.30
2017-11-16T04:36:24.624Z,10.40
2017-11-16T04:38:52.175Z,12.73
2017-11-16T04:41:19.705Z,10.13
2017-11-16T04:43:48.045Z,15.80
2017-11-16T04:46:15.612Z,11.20
2017-11-16T04:48:43.184Z,11.30
2017-11-16T04:51:10.732Z,11.45
2017-11-16T04:53:38.321Z,10.75
2017-11-16T04:56:06.622Z,7.62
2017-11-16T04:58:34.184Z,11.82
2017-11-16T05:01:01.751Z,17.37
2017-11-16T05:03:29.306Z,18.42
2017-11-16T05:05:56.884Z,11.10
2017-11-16T05:08:24.444Z,10.15
2017-11-16T05:10:52.008Z,9.15
2017-11-16T05:13:19.546Z,13.75
2017-11-16T05:15:47.860Z,11.45
2017-11-16T05:18:15.436Z,11.50
2017-11-16T05:20:43.006Z,15.98
2017-11-16T05:23:10.551Z,9.82
2017-11-16T05:25:38.122Z,10.38
2017-11-16T05:28:05.681Z,9.85
2017-11-16T05:30:33.977Z,10.95
2017-11-16T05:33:01.531Z,27.90
2017-11-16T05:35:29.102Z,9.88
2017-11-16T05:37:56.661Z,8.77
2017-11-16T05:40:24.205Z,12.50
2017-11-16T05:42:51.787Z,11.98
2017-11-16T05:45:19.343Z,20.85
2017-11-16T05:47:46.938Z,10.85
2017-11-16T05:50:15.274Z,10.18
2017-11-16T05:52:42.811Z,9.95
2017-11-16T05:55:10.381Z,9.30
2017-11-16T05:57:37.933Z,10.50
2017-11-16T06:00:05.515Z,8.55
2017-11-16T06:02:33.088Z,7.87
2017-11-16T06:05:00.629Z,7.90
2017-11-16T06:07:28.180Z,11.75
2017-11-16T06:09:55.759Z,8.15
2017-11-16T06:12:23.299Z,12.73
2017-11-16T06:14:50.877Z,13.32
2017-11-16T06:17:18.429Z,20.05
2017-11-16T06:19:45.991Z,14.52
2017-11-16T06:22:13.522Z,9.25
2017-11-16T06:24:41.854Z,11.00
2017-11-16T06:27:09.387Z,10.55
2017-11-16T06:29:36.937Z,16.30
2017-11-16T06:32:04.509Z,12.50
2017-11-16T06:34:32.045Z,7.90
2017-11-16T06:37:00.374Z,12.30
2017-11-16T06:39:27.956Z,14.07
2017-11-16T06:41:55.515Z,10.25
2017-11-16T06:44:23.080Z,10.05
2017-11-16T06:46:50.616Z,12.77
2017-11-16T06:49:18.173Z,16.17
2017-11-16T06:51:45.705Z,9.60
2017-11-16T06:54:14.022Z,13.38
2017-11-16T06:56:41.603Z,15.65
2017-11-16T06:59:09.142Z,17.15
2017-11-16T07:01:36.709Z,11.27
2017-11-16T07:04:04.249Z,11.35
2017-11-16T07:06:31.788Z,24.67
2017-11-16T07:09:00.128Z,13.18
2017-11-16T07:11:27.677Z,19.30
2017-11-16T07:13:55.980Z,28.95
2017-11-16T07:16:23.566Z,16.40
2017-11-16T07:18:51.873Z,19.10
2017-11-16T07:21:19.458Z,16.80
2017-11-16T07:23:47.011Z,17.83
2017-11-16T07:26:14.570Z,20.73
2017-11-16T07:28:42.128Z,20.37
2017-11-16T07:31:09.663Z,19.02
2017-11-16T07:33:37.998Z,13.95
2017-11-16T07:36:05.537Z,15.70
2017-11-16T07:38:33.085Z,22.95
2017-11-16T07:41:00.658Z,17.35
2017-11-16T07:43:28.330Z,18.90
2017-11-16T07:45:55.912Z,13.68
2017-11-16T07:48:23.447Z,18.42
2017-11-16T07:50:50.995Z,13.60
2017-11-16T07:53:18.621Z,15.80
2017-11-16T07:55:46.170Z,22.50
2017-11-16T07:58:13.752Z,12.77
2017-11-16T08:00:42.091Z,20.17
2017-11-16T08:03:09.645Z,16.12
2017-11-16T08:05:37.201Z,21.83
2017-11-16T08:08:04.776Z,18.58
2017-11-16T08:10:32.351Z,18.50
2017-11-16T08:12:59.883Z,16.08
2017-11-16T08:15:27.435Z,14.10
2017-11-16T08:17:54.994Z,17.35
2017-11-16T08:20:22.522Z,15.63
2017-11-16T08:22:50.844Z,17.27
2017-11-16T08:25:18.401Z,28.80
2017-11-16T08:27:45.973Z,18.30
2017-11-16T08:30:13.513Z,19.12
2017-11-16T08:32:41.069Z,32.90
2017-11-16T08:35:08.669Z,19.45
2017-11-16T08:37:36.256Z,15.10
2017-11-16T08:40:03.826Z,16.95
2017-11-16T08:42:31.404Z,22.65
2017-11-16T08:44:59.732Z,16.70
2017-11-16T08:47:27.281Z,20.27
2017-11-16T08:49:54.870Z,17.42
2017-11-16T08:52:22.461Z,23.67
2017-11-16T08:54:50.816Z,19.58
2017-11-16T08:57:18.379Z,17.30
2017-11-16T08:59:45.978Z,28.80
2017-11-16T09:02:14.307Z,20.05
2017-11-16T09:04:41.872Z,24.08
2017-11-16T09:07:09.448Z,33.58
2017-11-16T09:09:37.801Z,37.45
2017-11-16T09:12:05.399Z,20.62
2017-11-16T09:14:32.942Z,22.58
2017-11-16T09:17:00.511Z,24.63
2017-11-16T09:19:28.086Z,31.98
2017-11-16T09:21:56.457Z,33.90
2017-11-16T09:24:24.037Z,20.50
2017-11-16T09:26:52.430Z,19.15
2017-11-16T09:29:20.787Z,16.50
2017-11-16T09:31:48.387Z,31.55
2017-11-16T09:34:15.960Z,21.55
2017-11-16T09:36:43.529Z,19.45
2017-11-16T09:39:11.121Z,20.60
2017-11-16T09:41:38.691Z,22.65
2017-11-16T09:44:06.289Z,22.42
2017-11-16T09:46:34.602Z,22.65
2017-11-16T09:49:02.156Z,24.87
2017-11-16T09:51:29.745Z,21.08
2017-11-16T09:53:57.277Z,29.92
2017-11-16T09:56:24.814Z,28.02
2017-11-16T09:58:53.137Z,19.70
2017-11-16T10:01:20.679Z,21.48
2017-11-16T10:03:48.268Z,25.73
2017-11-16T10:06:15.824Z,28.52
2017-11-16T10:08:43.366Z,21.62
2017-11-16T10:11:10.932Z,32.13
2017-11-16T10:13:38.485Z,27.13
2017-11-16T10:16:06.050Z,23.05
2017-11-16T10:18:33.583Z,22.02
2017-11-16T10:21:01.922Z,25.12
2017-11-16T10:23:29.484Z,26.42
2017-11-16T10:25:57.044Z,24.05
2017-11-16T10:28:24.607Z,30.48
2017-11-16T10:30:52.153Z,30.75
2017-11-16T10:33:19.697Z,22.30
2017-11-16T10:35:47.275Z,18.35
2017-11-16T10:38:14.813Z,24.77
2017-11-16T10:40:42.402Z,26.37
2017-11-16T10:43:09.965Z,26.62
2017-11-16T10:45:37.529Z,18.92
2017-11-16T10:48:05.094Z,21.83
2017-11-16T10:50:32.681Z,26.75
2017-11-16T10:53:00.245Z,19.37
2017-11-16T10:55:27.806Z,19.25
2017-11-16T10:57:55.354Z,27.17
2017-11-16T11:00:22.936Z,29.10
2017-11-16T11:02:50.474Z,21.08
2017-11-16T11:05:18.797Z,24.03
2017-11-16T11:07:47.204Z,34.35
2017-11-16T11:10:14.746Z,23.52
2017-11-16T11:12:42.320Z,21.40
2017-11-16T11:15:09.858Z,23.90
2017-11-16T11:17:38.220Z,37.00
2017-11-16T11:20:05.778Z,38.65
2017-11-16T11:22:33.359Z,25.67
2017-11-16T11:25:01.689Z,32.60
2017-11-16T11:27:29.264Z,19.42
2017-11-16T11:29:56.828Z,23.80
2017-11-16T11:32:24.370Z,23.52
2017-11-16T11:34:51.938Z,25.73
2017-11-16T11:37:19.494Z,21.95
2017-11-16T11:39:47.044Z,23.17
2017-11-16T11:42:14.631Z,19.47
2017-11-16T11:44:42.166Z,22.10
2017-11-16T11:47:09.752Z,25.62
2017-11-16T11:49:37.299Z,21.80
2017-11-16T11:52:04.842Z,33.17
2017-11-16T11:54:32.414Z,21.33
2017-11-16T11:56:59.960Z,25.57
2017-11-16T11:59:27.537Z,25.40
2017-11-16T12:01:56.005Z,21.07
2017-11-16T12:04:23.534Z,25.20
2017-11-16T12:06:51.095Z,16.80
2017-11-16T12:09:18.639Z,25.23
2017-11-16T12:11:47.707Z,23.10
2017-11-16T12:14:15.297Z,24.20
2017-11-16T12:16:42.835Z,26.17
2017-11-16T12:19:10.378Z,21.12
2017-11-16T12:21:37.971Z,22.73
2017-11-16T12:24:05.514Z,21.27
2017-11-16T12:26:33.050Z,17.70
2017-11-16T12:29:01.388Z,38.38
2017-11-16T12:31:28.958Z,24.27
2017-11-16T12:33:56.553Z,26.50
2017-11-16T12:36:24.097Z,19.37
2017-11-16T12:38:52.422Z,20.42
2017-11-16T12:41:20.001Z,22.83
2017-11-16T12:43:47.557Z,22.45
2017-11-16T12:46:15.107Z,23.02
2017-11-16T12:48:42.681Z,17.30
2017-11-16T12:51:10.252Z,21.37
2017-11-16T12:53:37.820Z,15.90
2017-11-16T12:56:05.471Z,26.92
2017-11-16T12:58:33.817Z,22.73
2017-11-16T13:01:01.360Z,26.83
2017-11-16T13:03:29.726Z,25.90
2017-11-16T13:05:58.038Z,19.00
2017-11-16T13:08:25.601Z,15.77
2017-11-16T13:10:53.182Z,14.95
2017-11-16T13:13:20.741Z,18.48
2017-11-16T13:15:48.306Z,22.40
2017-11-16T13:18:15.905Z,16.63
2017-11-16T13:20:43.442Z,34.20
2017-11-16T13:23:11.014Z,21.45
2017-11-16T13:25:38.595Z,27.35
2017-11-16T13:28:06.156Z,15.87
2017-11-16T13:30:33.729Z,24.37
2017-11-16T13:33:02.081Z,16.47
2017-11-16T13:35:29.646Z,19.50
2017-11-16T13:37:57.201Z,16.17
2017-11-16T13:40:24.824Z,30.83
2017-11-16T13:42:53.143Z,13.60
2017-11-16T13:45:20.718Z,24.63
2017-11-16T13:47:48.316Z,24.10
2017-11-16T13:50:15.869Z,15.13
2017-11-16T13:52:43.424Z,17.43
2017-11-16T13:55:11.015Z,18.23
2017-11-16T13:57:38.596Z,30.40
2017-11-16T14:00:06.145Z,20.12
2017-11-16T14:02:33.731Z,19.00
2017-11-16T14:05:01.293Z,17.40
2017-11-16T14:07:28.845Z,16.23
2017-11-16T14:09:56.470Z,21.65
2017-11-16T14:12:24.783Z,18.02
2017-11-16T14:14:52.322Z,18.65
2017-11-16T14:17:20.663Z,24.58
2017-11-16T14:19:48.210Z,23.95
2017-11-16T14:22:16.547Z,24.23
2017-11-16T14:24:44.105Z,20.00
2017-11-16T14:27:11.709Z,20.02
2017-11-16T14:29:39.293Z,23.00
2017-11-16T14:32:06.829Z,19.87
2017-11-16T14:34:34.385Z,26.45
2017-11-16T14:37:01.978Z,21.85
2017-11-16T14:39:29.546Z,15.95
2017-11-16T14:41:57.087Z,20.08
2017-11-16T14:44:25.434Z,21.48
2017-11-16T14:46:52.998Z,20.52
2017-11-16T14:49:20.584Z,30.02
2017-11-16T14:51:48.901Z,26.85
2017-11-16T14:54:16.474Z,23.75
2017-11-16T14:56:44.792Z,28.35
2017-11-16T14:59:12.357Z,21.02
2017-11-16T15:01:39.923Z,29.58
2017-11-16T15:04:07.468Z,20.67
2017-11-16T15:06:35.053Z,20.90
2017-11-16T15:09:02.630Z,18.75
2017-11-16T15:11:30.197Z,22.30
2017-11-16T15:13:57.788Z,25.27
2017-11-16T15:16:26.124Z,23.90
2017-11-16T15:18:53.685Z,21.48
2017-11-16T15:21:21.252Z,23.27
2017-11-16T15:23:48.800Z,30.30
2017-11-16T15:26:16.389Z,22.27
2017-11-16T15:28:43.929Z,19.00
2017-11-16T15:31:11.465Z,19.85
2017-11-16T15:33:39.059Z,21.52
2017-11-16T15:36:06.629Z,25.88
2017-11-16T15:38:34.194Z,46.00
2017-11-16T15:41:01.752Z,13.60
2017-11-16T15:43:29.292Z,19.30
2017-11-16T15:45:57.634Z,27.30
2017-11-16T15:48:25.975Z,22.60
2017-11-16T15:50:53.591Z,21.73
2017-11-16T15:53:21.166Z,25.92
2017-11-16T15:55:48.738Z,23.23
2017-11-16T15:58:16.346Z,26.95
2017-11-16T16:00:43.917Z,26.45
2017-11-16T16:03:12.257Z,26.00
2017-11-16T16:05:39.817Z,25.98
2017-11-16T16:08:07.401Z,24.42
2017-11-16T16:10:34.957Z,22.73
2017-11-16T16:13:02.530Z,20.80
2017-11-16T16:15:30.081Z,32.38
2017-11-16T16:17:57.618Z,28.58
2017-11-16T16:20:25.519Z,24.67
2017-11-16T16:22:53.066Z,29.95
2017-11-16T16:25:20.624Z,23.23
2017-11-16T16:27:48.188Z,20.35
2017-11-16T16:30:15.754Z,26.98
2017-11-16T16:32:43.322Z,25.37
2017-11-16T16:35:10.880Z,24.98
2017-11-16T16:37:38.472Z,21.35
2017-11-16T16:40:06.807Z,30.27
2017-11-16T16:42:34.347Z,35.38
2017-11-16T16:45:01.930Z,25.62
2017-11-16T16:47:29.488Z,26.23
2017-11-16T16:49:57.022Z,24.45
2017-11-16T16:52:24.608Z,26.00
2017-11-16T16:54:52.161Z,30.02
2017-11-16T16:57:19.717Z,28.15
2017-11-16T16:59:47.287Z,30.73
2017-11-16T17:02:14.840Z,23.87
2017-11-16T17:04:42.396Z,37.42
2017-11-16T17:07:09.965Z,26.15
2017-11-16T17:09:37.497Z,28.98
2017-11-16T17:12:05.827Z,32.15
2017-11-16T17:14:33.394Z,29.30
2017-11-16T17:17:00.960Z,32.90
2017-11-16T17:19:28.514Z,33.65
2017-11-16T17:21:56.092Z,23.60
2017-11-16T17:24:23.630Z,25.73
2017-11-16T17:26:51.189Z,20.15
2017-11-16T17:29:18.748Z,22.37
2017-11-16T17:31:46.297Z,24.30
2017-11-16T17:34:13.875Z,27.95
2017-11-16T17:36:41.451Z,22.17
2017-11-16T17:39:08.996Z,26.70
2017-11-16T17:41:36.553Z,34.45
2017-11-16T17:44:04.116Z,28.30
2017-11-16T17:46:31.669Z,32.17
2017-11-16T17:48:59.229Z,25.90
2017-11-16T17:51:26.824Z,29.25
2017-11-16T17:53:54.376Z,26.08
2017-11-16T17:56:21.917Z,25.25
2017-11-16T17:58:49.485Z,26.50
2017-11-16T18:01:17.034Z,33.08
2017-11-16T18:03:44.593Z,28.38
2017-11-16T18:06:12.175Z,22.17
2017-11-16T18:08:39.743Z,20.08
2017-11-16T18:11:07.282Z,24.80
2017-11-16T18:13:34.844Z,22.42
2017-11-16T18:16:02.381Z,35.78
2017-11-16T18:18:30.714Z,46.10
2017-11-16T18:20:58.250Z,35.40
2017-11-16T18:23:25.796Z,44.78
2017-11-16T18:25:53.385Z,25.37
2017-11-16T18:28:20.938Z,25.08
2017-11-16T18:30:48.504Z,30.17
2017-11-16T18:33:16.093Z,27.73
2017-11-16T18:35:43.690Z,32.90
2017-11-16T18:38:11.995Z,38.15
2017-11-16T18:40:39.571Z,43.33
2017-11-16T18:43:07.102Z,46.25
2017-11-16T18:45:34.680Z,46.50
2017-11-16T18:48:02.263Z,68.35
2017-11-16T18:50:29.797Z,56.08
2017-11-16T18:52:57.375Z,63.20
2017-11-16T18:55:24.926Z,48.90
2017-11-16T18:57:52.495Z,43.58
2017-11-16T19:00:20.039Z,54.78
2017-11-16T19:02:47.602Z,50.03
2017-11-16T19:05:15.184Z,45.95
2017-11-16T19:07:42.734Z,60.15
2017-11-16T19:10:10.315Z,51.70
2017-11-16T19:12:37.869Z,50.03
2017-11-16T19:15:05.407Z,63.63
2017-11-16T19:17:32.977Z,54.95
2017-11-16T19:20:00.519Z,57.67
2017-11-16T19:22:28.841Z,64.05
2017-11-16T19:24:56.407Z,63.08
2017-11-16T19:27:23.963Z,63.58
2017-11-16T19:29:51.530Z,65.68
2017-11-16T19:32:19.103Z,84.03
2017-11-16T19:34:46.651Z,77.45
2017-11-16T19:37:14.214Z,68.50
2017-11-16T19:39:41.778Z,85.03
2017-11-16T19:42:09.366Z,78.40
2017-11-16T19:44:37.684Z,75.37
2017-11-16T19:47:06.002Z,66.53
2017-11-16T19:49:33.555Z,66.03
2017-11-16T19:52:01.164Z,65.80
2017-11-16T19:54:28.705Z,76.70
2017-11-16T19:56:56.270Z,61.65
2017-11-16T19:59:23.849Z,46.17
2017-11-16T20:01:51.408Z,42.20
2017-11-16T20:04:18.986Z,67.68
2017-11-16T20:06:47.290Z,53.87
2017-11-16T20:09:14.841Z,61.60
2017-11-16T20:11:42.443Z,52.83
2017-11-16T20:14:09.994Z,50.60
2017-11-16T20:16:37.545Z,60.45
2017-11-16T20:19:05.112Z,36.17
2017-11-16T20:21:32.650Z,46.58
2017-11-16T20:24:00.973Z,55.25
2017-11-16T20:26:29.305Z,40.60
2017-11-16T20:28:57.624Z,60.00
2017-11-16T20:31:25.183Z,56.15
2017-11-16T20:33:52.769Z,53.65
2017-11-16T20:36:20.310Z,42.15
2017-11-16T20:38:53.606Z,44.58
2017-11-16T20:44:32.041Z,53.08
2017-11-16T20:47:14.475Z,41.85
2017-11-16T20:50:01.785Z,57.50
2017-11-16T20:55:26.478Z,52.22
2017-11-16T20:57:54.020Z,52.05
2017-11-16T21:00:22.337Z,56.78
2017-11-16T21:02:49.934Z,53.28
2017-11-16T21:05:17.471Z,39.88
2017-11-16T21:07:45.006Z,42.20
2017-11-16T21:10:12.570Z,44.25
2017-11-16T21:12:40.136Z,51.83
2017-11-16T21:15:07.706Z,66.47
2017-11-16T21:17:35.295Z,71.82
2017-11-16T21:20:02.858Z,62.92
2017-11-16T21:22:30.418Z,56.97
2017-11-16T21:24:58.000Z,57.78
2017-11-16T21:27:26.328Z,58.55
2017-11-16T21:29:53.868Z,70.05
2017-11-16T21:32:21.459Z,79.32
2017-11-16T21:34:49.004Z,78.35
2017-11-16T21:37:16.573Z,67.62
2017-11-16T21:39:44.141Z,45.55
2017-11-16T21:42:11.692Z,85.75
2017-11-16T21:44:39.234Z,73.62
2017-11-16T21:47:06.792Z,71.87
2017-11-16T21:49:35.259Z,72.62
2017-11-16T21:52:03.617Z,76.40
2017-11-16T21:54:31.947Z,69.97
2017-11-16T21:56:59.530Z,72.82
2017-11-16T21:59:27.067Z,63.33
2017-11-16T22:01:54.626Z,57.20
2017-11-16T22:04:22.166Z,81.25
2017-11-16T22:06:50.515Z,79.62
2017-11-16T22:09:18.841Z,56.50
2017-11-16T22:11:47.139Z,69.97
2017-11-16T22:14:14.698Z,56.15
2017-11-16T22:16:42.246Z,63.63
2017-11-16T22:19:09.821Z,87.05
2017-11-16T22:21:37.363Z,71.60
2017-11-16T22:24:04.909Z,69.32
2017-11-16T22:26:33.259Z,63.13
2017-11-16T22:29:01.581Z,53.20
2017-11-16T22:31:29.887Z,69.43
2017-11-16T22:33:57.453Z,63.42
2017-11-16T22:36:25.018Z,56.95
2017-11-16T22:38:52.553Z,55.75
2017-11-16T22:41:20.887Z,50.75
2017-11-16T22:43:48.447Z,54.88
2017-11-16T22:46:15.990Z,64.65
2017-11-16T22:48:43.566Z,70.00
2017-11-16T22:51:11.108Z,71.10
2017-11-16T22:53:38.650Z,60.22
2017-11-16T22:56:06.217Z,75.62
2017-11-16T22:58:33.746Z,57.55
2017-11-16T23:01:02.063Z,61.80
2017-11-16T23:03:29.641Z,73.47
2017-11-16T23:05:57.194Z,61.95
2017-11-16T23:08:24.765Z,59.85
2017-11-16T23:10:52.321Z,69.57
2017-11-16T23:13:19.904Z,85.50
2017-11-16T23:15:47.462Z,67.95
2017-11-16T23:18:15.012Z,61.75
2017-11-16T23:20:42.580Z,61.88
2017-11-16T23:23:10.149Z,66.85
2017-11-16T23:25:37.713Z,75.57
2017-11-16T23:28:05.292Z,70.03
2017-11-16T23:30:32.818Z,59.38
2017-11-16T23:33:00.386Z,74.50
2017-11-16T23:35:28.693Z,64.68
2017-11-16T23:37:56.282Z,62.97
2017-11-16T23:40:24.612Z,76.28
2017-11-16T23:42:52.166Z,64.68
2017-11-16T23:45:19.747Z,69.22
2017-11-16T23:47:47.301Z,58.00
2017-11-16T23:50:14.869Z,80.53
2017-11-16T23:52:42.442Z,79.47
2017-11-16T23:55:10.000Z,59.75
2017-11-16T23:57:37.540Z,67.68
